Northern Dedication — A8LP7 — position and weather

sailwx.info

Track history (hours):
 
Tides and Currents Weather Stations Pressure Air Temp Water Temp Dewpoint Dewpoint Depression Visibility Wind Speed Wind Dir Waves Ship Positions

Northern Dedication

Last reported at 2017-Nov-22 22:13 UTC. Time now 2017-Dec-18 12:56 UTC.
Position N 01°24' E 103°14'.
Warning: this ship's position is 25 days out of date.

Length 230 m; draft 9 m.

Type: Ship. MMSI: 636091291.

Date/timePositionNaut miles runAvg speedWind from/ knotsBaromVisibWave heightAir tempDewpointWater temp
2017-Nov-22 22:13N 01°24' E 103°14'312.0
2017-Nov-22 21:57N 01°22' E 103°17'511.7
2017-Nov-22 21:30N 01°19' E 103°20'611.6
2017-Nov-22 21:00N 01°15' E 103°25'611.1
2017-Nov-22 20:30N 01°13' E 103°30'510.7
2017-Nov-22 20:00N 01°12' E 103°35'510.8
2017-Nov-22 19:30N 01°11' E 103°40'  
2017-Nov-14 11:55N 21°42' E 114°22'711.6
2017-Nov-14 11:20N 21°48' E 114°25'411.5
2017-Nov-14 11:00N 21°52' E 114°25'611.0
2017-Nov-14 10:30N 21°57' E 114°24'510.8
2017-Nov-14 10:00N 22°02' E 114°23'5 9.3
2017-Nov-14 09:29N 22°06' E 114°20'510.1
2017-Nov-14 09:00N 22°07' E 114°15'510.1
2017-Nov-14 08:30N 22°07' E 114°09'3 5.6
2017-Nov-14 08:00N 22°09' E 114°07'0 0.1
2017-Nov-14 04:01N 22°09' E 114°07'0 2.5
2017-Nov-14 03:51N 22°09' E 114°08'2 6.8
2017-Nov-14 03:30N 22°08' E 114°10'4 7.8
2017-Nov-14 02:57N 22°08' E 114°15'4 7.7
2017-Nov-14 02:29N 22°08' E 114°19'510.0
2017-Nov-14 02:00N 22°07' E 114°24'4 7.4
2017-Nov-14 01:30N 22°04' E 114°27'4 7.3
2017-Nov-14 01:00N 22°02' E 114°30'4 7.4
2017-Nov-14 00:30N 21°59' E 114°32'23 0.9
2017-Nov-12 23:22N 21°48' E 114°54'  
Track history (hours):
 
Tides and Currents Weather Stations Pressure Air Temp Water Temp Dewpoint Dewpoint Depression Visibility Wind Speed Wind Dir Waves Ship Positions

Northern Dedication

Last reported at 2017-Nov-22 22:13 UTC. Time now 2017-Dec-18 12:56 UTC.
Position N 01°24' E 103°14'.
Warning: this ship's position is 25 days out of date.

Length 230 m; draft 9 m.

Type: Ship. MMSI: 636091291.

Date/timePositionNaut miles runAvg speedWind from/ knotsBaromVisibWave heightAir tempDewpointWater temp
2017-Nov-22 22:13N 01°24' E 103°14'312.0
2017-Nov-22 21:57N 01°22' E 103°17'511.7
2017-Nov-22 21:30N 01°19' E 103°20'611.6
2017-Nov-22 21:00N 01°15' E 103°25'611.1
2017-Nov-22 20:30N 01°13' E 103°30'510.7
2017-Nov-22 20:00N 01°12' E 103°35'510.8
2017-Nov-22 19:30N 01°11' E 103°40'  
2017-Nov-14 11:55N 21°42' E 114°22'711.6
2017-Nov-14 11:20N 21°48' E 114°25'411.5
2017-Nov-14 11:00N 21°52' E 114°25'611.0
2017-Nov-14 10:30N 21°57' E 114°24'510.8
2017-Nov-14 10:00N 22°02' E 114°23'5 9.3
2017-Nov-14 09:29N 22°06' E 114°20'510.1
2017-Nov-14 09:00N 22°07' E 114°15'510.1
2017-Nov-14 08:30N 22°07' E 114°09'3 5.6
2017-Nov-14 08:00N 22°09' E 114°07'0 0.1
2017-Nov-14 04:01N 22°09' E 114°07'0 2.5
2017-Nov-14 03:51N 22°09' E 114°08'2 6.8
2017-Nov-14 03:30N 22°08' E 114°10'4 7.8
2017-Nov-14 02:57N 22°08' E 114°15'4 7.7
2017-Nov-14 02:29N 22°08' E 114°19'510.0
2017-Nov-14 02:00N 22°07' E 114°24'4 7.4
2017-Nov-14 01:30N 22°04' E 114°27'4 7.3
2017-Nov-14 01:00N 22°02' E 114°30'4 7.4
2017-Nov-14 00:30N 21°59' E 114°32'23 0.9
2017-Nov-12 23:22N 21°48' E 114°54'  

Dump ship's entire track history